sensor_id;sensor_type;location;lat;lon;timestamp;pressure;altitude;pressure_sealevel;temperature
75431;BMP280;64127;51.488;5.462;2023-05-10T00:01:05;100670.44;;;16.57
75431;BMP280;64127;51.488;5.462;2023-05-10T00:03:37;100663.38;;;16.56
75431;BMP280;64127;51.488;5.462;2023-05-10T00:06:10;100656.28;;;16.55
75431;BMP280;64127;51.488;5.462;2023-05-10T00:08:42;100666.09;;;16.61
75431;BMP280;64127;51.488;5.462;2023-05-10T00:11:14;100664.31;;;16.61
75431;BMP280;64127;51.488;5.462;2023-05-10T00:13:46;100666.09;;;16.61
75431;BMP280;64127;51.488;5.462;2023-05-10T00:16:18;100636.69;;;16.43
75431;BMP280;64127;51.488;5.462;2023-05-10T00:18:51;100666.09;;;16.61
75431;BMP280;64127;51.488;5.462;2023-05-10T00:21:23;100661.69;;;16.63
75431;BMP280;64127;51.488;5.462;2023-05-10T00:23:55;100657.28;;;16.65
75431;BMP280;64127;51.488;5.462;2023-05-10T00:26:26;100662.59;;;16.65
75431;BMP280;64127;51.488;5.462;2023-05-10T00:28:58;100659.00;;;16.61
75431;BMP280;64127;51.488;5.462;2023-05-10T00:31:31;100659.00;;;16.61
75431;BMP280;64127;51.488;5.462;2023-05-10T00:34:03;100661.66;;;16.61
75431;BMP280;64127;51.488;5.462;2023-05-10T00:36:35;100658.97;;;16.57
75431;BMP280;64127;51.488;5.462;2023-05-10T00:39:07;100663.38;;;16.58
75431;BMP280;64127;51.488;5.462;2023-05-10T00:41:39;100663.38;;;16.56
75431;BMP280;64127;51.488;5.462;2023-05-10T00:44:12;100663.28;;;16.55
75431;BMP280;64127;51.488;5.462;2023-05-10T00:46:44;100657.97;;;16.50
75431;BMP280;64127;51.488;5.462;2023-05-10T00:49:17;100665.06;;;16.54
75431;BMP280;64127;51.488;5.462;2023-05-10T00:51:49;100664.19;;;16.54
75431;BMP280;64127;51.488;5.462;2023-05-10T00:54:21;100661.50;;;16.52
75431;BMP280;64127;51.488;5.462;2023-05-10T00:56:53;100660.63;;;16.52
75431;BMP280;64127;51.488;5.462;2023-05-10T00:59:25;100654.44;;;16.51
75431;BMP280;64127;51.488;5.462;2023-05-10T01:01:58;100659.75;;;16.53
75431;BMP280;64127;51.488;5.462;2023-05-10T01:04:30;100645.50;;;16.43
75431;BMP280;64127;51.488;5.462;2023-05-10T01:07:02;100661.47;;;16.49
75431;BMP280;64127;51.488;5.462;2023-05-10T01:09:34;100656.13;;;16.46
75431;BMP280;64127;51.488;5.462;2023-05-10T01:12:07;100641.94;;;16.41
75431;BMP280;64127;51.488;5.462;2023-05-10T01:14:39;100656.13;;;16.46
75431;BMP280;64127;51.488;5.462;2023-05-10T01:17:13;100651.75;;;16.47
75431;BMP280;64127;51.488;5.462;2023-05-10T01:19:45;100658.78;;;16.46
75431;BMP280;64127;51.488;5.462;2023-05-10T01:23:04;100652.47;;;16.37
75431;BMP280;64127;51.488;5.462;2023-05-10T01:29:33;100652.38;;;16.29
75431;BMP280;64127;51.488;5.462;2023-05-10T01:36:53;100652.31;;;16.26
75431;BMP280;64127;51.488;5.462;2023-05-10T01:39:32;100649.75;;;16.32
75431;BMP280;64127;51.488;5.462;2023-05-10T01:42:59;100649.69;;;16.28
75431;BMP280;64127;51.488;5.462;2023-05-10T01:45:59;100661.25;;;16.34
75431;BMP280;64127;51.488;5.462;2023-05-10T01:48:33;100658.72;;;16.40
75431;BMP280;64127;51.488;5.462;2023-05-10T01:51:06;100655.16;;;16.40
75431;BMP280;64127;51.488;5.462;2023-05-10T01:53:41;100648.94;;;16.36
75431;BMP280;64127;51.488;5.462;2023-05-10T01:56:15;100652.44;;;16.35
75431;BMP280;64127;51.488;5.462;2023-05-10T01:58:49;100655.97;;;16.37
75431;BMP280;64127;51.488;5.462;2023-05-10T02:01:24;100651.59;;;16.38
75431;BMP280;64127;51.488;5.462;2023-05-10T02:03:58;100661.28;;;16.37
75431;BMP280;64127;51.488;5.462;2023-05-10T02:06:33;100655.97;;;16.37
75431;BMP280;64127;51.488;5.462;2023-05-10T02:09:06;100663.06;;;16.38
75431;BMP280;64127;51.488;5.462;2023-05-10T02:11:42;100664.78;;;16.33
75431;BMP280;64127;51.488;5.462;2023-05-10T02:14:16;100672.72;;;16.33
75431;BMP280;64127;51.488;5.462;2023-05-10T02:16:52;100662.91;;;16.28
75431;BMP280;64127;51.488;5.462;2023-05-10T02:19:27;100666.44;;;16.28
75431;BMP280;64127;51.488;5.462;2023-05-10T02:22:01;100676.13;;;16.28
75431;BMP280;64127;51.488;5.462;2023-05-10T02:24:37;100679.59;;;16.23
75431;BMP280;64127;51.488;5.462;2023-05-10T02:27:11;100677.84;;;16.24
75431;BMP280;64127;51.488;5.462;2023-05-10T02:29:45;100667.13;;;16.16
75431;BMP280;64127;51.488;5.462;2023-05-10T02:32:18;100644.06;;;16.05
75431;BMP280;64127;51.488;5.462;2023-05-10T02:34:52;100685.78;;;16.24
75431;BMP280;64127;51.488;5.462;2023-05-10T02:37:26;100680.50;;;16.24
75431;BMP280;64127;51.488;5.462;2023-05-10T02:39:59;100682.19;;;16.19
75431;BMP280;64127;51.488;5.462;2023-05-10T02:42:35;100690.13;;;16.19
75431;BMP280;64127;51.488;5.462;2023-05-10T02:45:14;100685.69;;;16.18
75431;BMP280;64127;51.488;5.462;2023-05-10T02:47:47;100694.53;;;16.20
75431;BMP280;64127;51.488;5.462;2023-05-10T02:50:21;100687.47;;;16.19
75431;BMP280;64127;51.488;5.462;2023-05-10T02:53:00;100681.22;;;16.14
75431;BMP280;64127;51.488;5.462;2023-05-10T02:55:38;100653.69;;;16.03
75431;BMP280;64127;51.488;5.462;2023-05-10T02:58:12;100684.75;;;16.14
75431;BMP280;64127;51.488;5.462;2023-05-10T03:00:44;100689.09;;;16.11
75431;BMP280;64127;51.488;5.462;2023-05-10T03:03:16;100689.00;;;16.05
75431;BMP280;64127;51.488;5.462;2023-05-10T03:05:48;100689.09;;;16.11
75431;BMP280;64127;51.488;5.462;2023-05-10T03:08:21;100697.03;;;16.11
75431;BMP280;64127;51.488;5.462;2023-05-10T03:20:36;100682.66;;;15.92
75431;BMP280;64127;51.488;5.462;2023-05-10T03:25:57;100681.75;;;15.92
75431;BMP280;64127;51.488;5.462;2023-05-10T03:28:31;100693.28;;;15.97
75431;BMP280;64127;51.488;5.462;2023-05-10T03:31:05;100685.25;;;15.91
75431;BMP280;64127;51.488;5.462;2023-05-10T03:33:49;100707.38;;;15.96
75431;BMP280;64127;51.488;5.462;2023-05-10T03:36:21;100706.44;;;15.94
75431;BMP280;64127;51.488;5.462;2023-05-10T03:38:53;100705.53;;;15.92
75431;BMP280;64127;51.488;5.462;2023-05-10T03:41:25;100711.69;;;15.91
75431;BMP280;64127;51.488;5.462;2023-05-10T03:43:57;100707.25;;;15.90
75431;BMP280;64127;51.488;5.462;2023-05-10T03:46:29;100710.84;;;15.92
75431;BMP280;64127;51.488;5.462;2023-05-10T03:49:01;100707.28;;;15.91
75431;BMP280;64127;51.488;5.462;2023-05-10T03:51:34;100706.34;;;15.88
75431;BMP280;64127;51.488;5.462;2023-05-10T03:54:06;100711.63;;;15.88
75431;BMP280;64127;51.488;5.462;2023-05-10T03:56:38;100721.28;;;15.86
75431;BMP280;64127;51.488;5.462;2023-05-10T03:59:10;100712.50;;;15.87
75431;BMP280;64127;51.488;5.462;2023-05-10T04:01:42;100714.28;;;15.89
75431;BMP280;64127;51.488;5.462;2023-05-10T04:04:13;100720.47;;;15.90
75431;BMP280;64127;51.488;5.462;2023-05-10T04:06:46;100722.22;;;15.89
75431;BMP280;64127;51.488;5.462;2023-05-10T04:09:18;100716.94;;;15.89
75431;BMP280;64127;51.488;5.462;2023-05-10T04:11:50;100725.75;;;15.90
75431;BMP280;64127;51.488;5.462;2023-05-10T04:14:22;100726.66;;;15.90
75431;BMP280;64127;51.488;5.462;2023-05-10T04:16:54;100724.84;;;15.88
75431;BMP280;64127;51.488;5.462;2023-05-10T04:19:30;100727.44;;;15.85
75431;BMP280;64127;51.488;5.462;2023-05-10T04:22:03;100719.47;;;15.83
75431;BMP280;64127;51.488;5.462;2023-05-10T04:24:35;100717.72;;;15.84
75431;BMP280;64127;51.488;5.462;2023-05-10T04:27:07;100722.91;;;15.79
75431;BMP280;64127;51.488;5.462;2023-05-10T04:29:39;100726.09;;;16.08
75431;BMP280;64127;51.488;5.462;2023-05-10T04:32:11;100716.78;;;15.79
75431;BMP280;64127;51.488;5.462;2023-05-10T04:34:43;100729.09;;;15.78
75431;BMP280;64127;51.488;5.462;2023-05-10T04:37:15;100727.34;;;15.79
75431;BMP280;64127;51.488;5.462;2023-05-10T04:39:47;100730.00;;;15.79
75431;BMP280;64127;51.488;5.462;2023-05-10T04:42:19;100726.44;;;15.78
75431;BMP280;64127;51.488;5.462;2023-05-10T04:44:51;100729.16;;;15.83
75431;BMP280;64127;51.488;5.462;2023-05-10T04:47:23;100736.22;;;15.84
75431;BMP280;64127;51.488;5.462;2023-05-10T04:49:55;100736.13;;;15.79
75431;BMP280;64127;51.488;5.462;2023-05-10T04:52:27;100743.22;;;15.80
75431;BMP280;64127;51.488;5.462;2023-05-10T04:54:59;100719.28;;;15.72
75431;BMP280;64127;51.488;5.462;2023-05-10T04:57:31;100739.72;;;15.81
75431;BMP280;64127;51.488;5.462;2023-05-10T05:00:04;100702.28;;;15.58
75431;BMP280;64127;51.488;5.462;2023-05-10T05:02:36;100740.47;;;15.74
75431;BMP280;64127;51.488;5.462;2023-05-10T05:05:08;100743.22;;;15.79
75431;BMP280;64127;51.488;5.462;2023-05-10T05:07:40;100709.31;;;15.56
75431;BMP280;64127;51.488;5.462;2023-05-10T05:10:12;100741.38;;;15.75
75431;BMP280;64127;51.488;5.462;2023-05-10T05:12:45;100744.84;;;15.73
75431;BMP280;64127;51.488;5.462;2023-05-10T05:15:17;100743.97;;;15.73
75431;BMP280;64127;51.488;5.462;2023-05-10T05:17:48;100749.34;;;15.79
75431;BMP280;64127;51.488;5.462;2023-05-10T05:20:20;100756.53;;;15.85
75431;BMP280;64127;51.488;5.462;2023-05-10T05:22:52;100749.53;;;15.88
75431;BMP280;64127;51.488;5.462;2023-05-10T05:25:24;100750.44;;;15.90
75431;BMP280;64127;51.488;5.462;2023-05-10T05:27:56;100753.09;;;15.90
75431;BMP280;64127;51.488;5.462;2023-05-10T05:30:28;100761.06;;;15.92
75431;BMP280;64127;51.488;5.462;2023-05-10T05:33:00;100749.53;;;15.90
75431;BMP280;64127;51.488;5.462;2023-05-10T05:35:33;100754.88;;;15.93
75431;BMP280;64127;51.488;5.462;2023-05-10T05:38:05;100751.19;;;15.82
75431;BMP280;64127;51.488;5.462;2023-05-10T05:40:37;100766.28;;;15.89
75431;BMP280;64127;51.488;5.462;2023-05-10T05:43:09;100773.38;;;15.93
75431;BMP280;64127;51.488;5.462;2023-05-10T05:45:41;100769.84;;;15.91
75431;BMP280;64127;51.488;5.462;2023-05-10T05:48:13;100769.75;;;15.85
75431;BMP280;64127;51.488;5.462;2023-05-10T05:50:45;100772.22;;;15.77
75431;BMP280;64127;51.488;5.462;2023-05-10T05:53:18;100767.00;;;15.79
75431;BMP280;64127;51.488;5.462;2023-05-10T05:55:58;100738.41;;;15.58
75431;BMP280;64127;51.488;5.462;2023-05-10T05:58:30;100775.91;;;15.85
75431;BMP280;64127;51.488;5.462;2023-05-10T06:01:02;100774.25;;;15.90
75431;BMP280;64127;51.488;5.462;2023-05-10T06:03:34;100780.47;;;15.94
75431;BMP280;64127;51.488;5.462;2023-05-10T06:06:06;100787.59;;;15.98
75431;BMP280;64127;51.488;5.462;2023-05-10T06:08:38;100786.72;;;15.97
75431;BMP280;64127;51.488;5.462;2023-05-10T06:11:10;100784.06;;;15.96
75431;BMP280;64127;51.488;5.462;2023-05-10T06:13:42;100791.06;;;15.94
75431;BMP280;64127;51.488;5.462;2023-05-10T06:16:14;100790.19;;;15.95
75431;BMP280;64127;51.488;5.462;2023-05-10T06:18:46;100794.63;;;15.96
75431;BMP280;64127;51.488;5.462;2023-05-10T06:21:18;100792.00;;;15.96
75431;BMP280;64127;51.488;5.462;2023-05-10T06:23:50;100792.00;;;15.97
75431;BMP280;64127;51.488;5.462;2023-05-10T06:26:22;100786.50;;;15.87
75431;BMP280;64127;51.488;5.462;2023-05-10T06:28:54;100799.81;;;15.91
75431;BMP280;64127;51.488;5.462;2023-05-10T06:31:26;100800.78;;;15.95
75431;BMP280;64127;51.488;5.462;2023-05-10T06:33:58;100798.28;;;16.02
75431;BMP280;64127;51.488;5.462;2023-05-10T06:36:30;100777.72;;;15.88
75431;BMP280;64127;51.488;5.462;2023-05-10T06:39:03;100806.38;;;16.11
75431;BMP280;64127;51.488;5.462;2023-05-10T06:41:35;100779.56;;;15.92
75431;BMP280;64127;51.488;5.462;2023-05-10T06:44:07;100812.50;;;16.09
75431;BMP280;64127;51.488;5.462;2023-05-10T06:46:39;100793.78;;;16.00
75431;BMP280;64127;51.488;5.462;2023-05-10T06:49:11;100822.28;;;16.13
75431;BMP280;64127;51.488;5.462;2023-05-10T06:51:42;100823.06;;;16.09
75431;BMP280;64127;51.488;5.462;2023-05-10T06:54:14;100822.19;;;16.08
75431;BMP280;64127;51.488;5.462;2023-05-10T06:56:46;100825.69;;;16.07
75431;BMP280;64127;51.488;5.462;2023-05-10T06:59:18;100824.06;;;16.15
75431;BMP280;64127;51.488;5.462;2023-05-10T07:01:51;100830.31;;;16.19
75431;BMP280;64127;51.488;5.462;2023-05-10T07:04:23;100798.13;;;15.95
75431;BMP280;64127;51.488;5.462;2023-05-10T07:06:55;100800.72;;;15.92
75431;BMP280;64127;51.488;5.462;2023-05-10T07:09:27;100831.88;;;16.08
75431;BMP280;64127;51.488;5.462;2023-05-10T07:12:00;100826.56;;;16.08
75431;BMP280;64127;51.488;5.462;2023-05-10T07:14:33;100836.41;;;16.16
75431;BMP280;64127;51.488;5.462;2023-05-10T07:17:05;100840.00;;;16.20
75431;BMP280;64127;51.488;5.462;2023-05-10T07:19:37;100810.53;;;15.99
75431;BMP280;64127;51.488;5.462;2023-05-10T07:22:09;100832.91;;;16.17
75431;BMP280;64127;51.488;5.462;2023-05-10T07:24:41;100836.44;;;16.18
75431;BMP280;64127;51.488;5.462;2023-05-10T07:27:13;100855.03;;;16.21
75431;BMP280;64127;51.488;5.462;2023-05-10T07:29:45;100855.88;;;16.18
75431;BMP280;64127;51.488;5.462;2023-05-10T07:32:17;100854.13;;;16.19
75431;BMP280;64127;51.488;5.462;2023-05-10T07:34:49;100851.53;;;16.22
75431;BMP280;64127;51.488;5.462;2023-05-10T07:37:21;100854.13;;;16.19
75431;BMP280;64127;51.488;5.462;2023-05-10T07:39:53;100858.47;;;16.17
75431;BMP280;64127;51.488;5.462;2023-05-10T07:42:25;100858.41;;;16.14
75431;BMP280;64127;51.488;5.462;2023-05-10T07:44:57;100834.31;;;15.97
75431;BMP280;64127;51.488;5.462;2023-05-10T07:47:29;100827.84;;;15.83
75431;BMP280;64127;51.488;5.462;2023-05-10T07:50:01;100866.97;;;16.01
75431;BMP280;64127;51.488;5.462;2023-05-10T07:52:33;100868.66;;;15.96
75431;BMP280;64127;51.488;5.462;2023-05-10T07:55:06;100873.91;;;15.94
75431;BMP280;64127;51.488;5.462;2023-05-10T07:57:39;100877.56;;;16.01
75431;BMP280;64127;51.488;5.462;2023-05-10T08:00:13;100875.81;;;16.03
75431;BMP280;64127;51.488;5.462;2023-05-10T08:02:48;100870.38;;;15.94
75431;BMP280;64127;51.488;5.462;2023-05-10T08:05:20;100877.50;;;15.98
75431;BMP280;64127;51.488;5.462;2023-05-10T08:07:52;100884.59;;;16.00
75431;BMP280;64127;51.488;5.462;2023-05-10T08:10:24;100887.34;;;16.05
75431;BMP280;64127;51.488;5.462;2023-05-10T08:12:57;100893.53;;;16.07
75431;BMP280;64127;51.488;5.462;2023-05-10T08:15:30;100893.47;;;16.04
75431;BMP280;64127;51.488;5.462;2023-05-10T08:18:02;100897.06;;;16.06
75431;BMP280;64127;51.488;5.462;2023-05-10T08:20:34;100897.97;;;16.08
75431;BMP280;64127;51.488;5.462;2023-05-10T08:23:06;100901.63;;;16.13
75431;BMP280;64127;51.488;5.462;2023-05-10T08:25:38;100905.97;;;16.09
75431;BMP280;64127;51.488;5.462;2023-05-10T08:28:10;100913.91;;;16.11
75431;BMP280;64127;51.488;5.462;2023-05-10T08:30:42;100911.31;;;16.12
75431;BMP280;64127;51.488;5.462;2023-05-10T08:33:14;100910.34;;;16.09
75431;BMP280;64127;51.488;5.462;2023-05-10T08:35:46;100914.06;;;16.18
75431;BMP280;64127;51.488;5.462;2023-05-10T08:38:18;100906.22;;;16.23
75431;BMP280;64127;51.488;5.462;2023-05-10T08:40:54;100908.88;;;16.24
75431;BMP280;64127;51.488;5.462;2023-05-10T08:43:29;100907.28;;;16.33
75431;BMP280;64127;51.488;5.462;2023-05-10T08:46:01;100911.84;;;16.41
75431;BMP280;64127;51.488;5.462;2023-05-10T08:48:35;100918.16;;;16.49
75431;BMP280;64127;51.488;5.462;2023-05-10T08:51:09;100922.75;;;16.56
75431;BMP280;64127;51.488;5.462;2023-05-10T08:53:44;100921.06;;;16.60
75431;BMP280;64127;51.488;5.462;2023-05-10T08:56:16;100919.34;;;16.63
75431;BMP280;64127;51.488;5.462;2023-05-10T08:58:50;100928.25;;;16.68
75431;BMP280;64127;51.488;5.462;2023-05-10T09:01:23;100919.44;;;16.69
75431;BMP280;64127;51.488;5.462;2023-05-10T09:03:55;100917.84;;;16.78
75431;BMP280;64127;51.488;5.462;2023-05-10T09:06:27;100921.75;;;17.01
75431;BMP280;64127;51.488;5.462;2023-05-10T09:09:01;100920.38;;;17.27
75431;BMP280;64127;51.488;5.462;2023-05-10T09:11:33;100920.66;;;17.45
75431;BMP280;64127;51.488;5.462;2023-05-10T09:14:05;100922.50;;;17.49
75431;BMP280;64127;51.488;5.462;2023-05-10T09:16:38;100920.59;;;17.39
75431;BMP280;64127;51.488;5.462;2023-05-10T09:19:10;100921.41;;;17.35
75431;BMP280;64127;51.488;5.462;2023-05-10T09:21:43;100919.53;;;17.28
75431;BMP280;64127;51.488;5.462;2023-05-10T09:24:15;100931.84;;;17.26
75431;BMP280;64127;51.488;5.462;2023-05-10T09:26:48;100922.09;;;17.22
75431;BMP280;64127;51.488;5.462;2023-05-10T09:29:20;100939.91;;;17.32
75431;BMP280;64127;51.488;5.462;2023-05-10T09:31:53;100931.19;;;17.39
75431;BMP280;64127;51.488;5.462;2023-05-10T09:34:32;100931.22;;;17.44
75431;BMP280;64127;51.488;5.462;2023-05-10T09:37:04;100929.56;;;17.50
75431;BMP280;64127;51.488;5.462;2023-05-10T09:39:37;100934.13;;;17.57
75431;BMP280;64127;51.488;5.462;2023-05-10T09:42:10;100912.84;;;17.53
75431;BMP280;64127;51.488;5.462;2023-05-10T09:44:42;100934.19;;;17.62
75431;BMP280;64127;51.488;5.462;2023-05-10T09:47:18;100937.69;;;17.61
75431;BMP280;64127;51.488;5.462;2023-05-10T09:49:53;100935.00;;;17.58
75431;BMP280;64127;51.488;5.462;2023-05-10T09:52:31;100925.16;;;17.51
75431;BMP280;64127;51.488;5.462;2023-05-10T09:55:20;100931.38;;;17.54
75431;BMP280;64127;51.488;5.462;2023-05-10T09:58:01;100944.72;;;17.56
75431;BMP280;64127;51.488;5.462;2023-05-10T10:00:47;100943.00;;;17.61
75431;BMP280;64127;51.488;5.462;2023-05-10T10:03:23;100941.31;;;17.67
75431;BMP280;64127;51.488;5.462;2023-05-10T10:05:56;100947.53;;;17.66
75431;BMP280;64127;51.488;5.462;2023-05-10T10:08:28;100932.28;;;17.55
75431;BMP280;64127;51.488;5.462;2023-05-10T10:11:00;100946.44;;;17.55
75431;BMP280;64127;51.488;5.462;2023-05-10T10:13:33;100940.06;;;17.44
75431;BMP280;64127;51.488;5.462;2023-05-10T10:16:05;100948.03;;;17.43
75431;BMP280;64127;51.488;5.462;2023-05-10T10:18:38;100934.56;;;17.29
75431;BMP280;64127;51.488;5.462;2023-05-10T10:21:13;100951.50;;;17.39
75431;BMP280;64127;51.488;5.462;2023-05-10T10:23:46;100944.53;;;17.45
75431;BMP280;64127;51.488;5.462;2023-05-10T10:26:19;100943.84;;;17.58
75431;BMP280;64127;51.488;5.462;2023-05-10T10:31:57;100949.44;;;17.78
75431;BMP280;64127;51.488;5.462;2023-05-10T10:34:32;100954.84;;;17.86
75431;BMP280;64127;51.488;5.462;2023-05-10T10:37:06;100940.78;;;17.93
75431;BMP280;64127;51.488;5.462;2023-05-10T10:39:38;100944.44;;;18.01
75431;BMP280;64127;51.488;5.462;2023-05-10T10:42:10;100936.63;;;18.11
75431;BMP280;64127;51.488;5.462;2023-05-10T10:44:42;100929.66;;;18.21
75431;BMP280;64127;51.488;5.462;2023-05-10T10:52:37;100935.13;;;18.39
75431;BMP280;64127;51.488;5.462;2023-05-10T10:55:16;100940.38;;;18.32
75431;BMP280;64127;51.488;5.462;2023-05-10T10:57:56;100942.00;;;18.19
75431;BMP280;64127;51.488;5.462;2023-05-10T11:00:37;100938.31;;;18.06
75431;BMP280;64127;51.488;5.462;2023-05-10T11:03:13;100941.13;;;18.20
75431;BMP280;64127;51.488;5.462;2023-05-10T11:05:51;100942.66;;;18.00
75431;BMP280;64127;51.488;5.462;2023-05-10T11:08:30;100945.16;;;17.89
75431;BMP280;64127;51.488;5.462;2023-05-10T11:11:05;100949.47;;;17.80
75431;BMP280;64127;51.488;5.462;2023-05-10T11:13:46;100915.66;;;17.63
75431;BMP280;64127;51.488;5.462;2023-05-10T11:16:24;100938.00;;;17.81
75431;BMP280;64127;51.488;5.462;2023-05-10T11:19:02;100957.59;;;17.95
75431;BMP280;64127;51.488;5.462;2023-05-10T11:21:50;100944.47;;;18.04
75431;BMP280;64127;51.488;5.462;2023-05-10T11:24:27;100945.59;;;18.25
75431;BMP280;64127;51.488;5.462;2023-05-10T11:26:59;100945.72;;;18.35
75431;BMP280;64127;51.488;5.462;2023-05-10T11:29:32;100944.91;;;18.43
75431;BMP280;64127;51.488;5.462;2023-05-10T11:32:05;100946.75;;;18.47
75431;BMP280;64127;51.488;5.462;2023-05-10T11:34:39;100948.53;;;18.48
75431;BMP280;64127;51.488;5.462;2023-05-10T11:37:11;100945.03;;;18.51
75431;BMP280;64127;51.488;5.462;2023-05-10T11:39:46;100938.00;;;18.54
75431;BMP280;64127;51.488;5.462;2023-05-10T11:42:21;100946.94;;;18.62
75431;BMP280;64127;51.488;5.462;2023-05-10T11:44:53;100948.75;;;18.68
75431;BMP280;64127;51.488;5.462;2023-05-10T11:47:25;100954.09;;;18.71
75431;BMP280;64127;51.488;5.462;2023-05-10T11:49:57;100956.75;;;18.71
75431;BMP280;64127;51.488;5.462;2023-05-10T11:52:35;100945.22;;;18.67
75431;BMP280;64127;51.488;5.462;2023-05-10T11:55:08;100973.56;;;18.68
75431;BMP280;64127;51.488;5.462;2023-05-10T11:57:40;100961.81;;;18.50
75431;BMP280;64127;51.488;5.462;2023-05-10T12:00:14;100961.41;;;18.13
75431;BMP280;64127;51.488;5.462;2023-05-10T12:02:47;100987.69;;;17.94
75431;BMP280;64127;51.488;5.462;2023-05-10T12:05:20;100986.47;;;17.70
75431;BMP280;64127;51.488;5.462;2023-05-10T12:07:52;100990.53;;;17.50
75431;BMP280;64127;51.488;5.462;2023-05-10T12:10:26;101000.06;;;17.36
75431;BMP280;64127;51.488;5.462;2023-05-10T12:12:58;100961.66;;;17.11
75431;BMP280;64127;51.488;5.462;2023-05-10T12:15:30;100991.06;;;17.28
75431;BMP280;64127;51.488;5.462;2023-05-10T12:18:02;100990.13;;;17.24
75431;BMP280;64127;51.488;5.462;2023-05-10T12:20:35;100993.78;;;17.31
75431;BMP280;64127;51.488;5.462;2023-05-10T12:23:09;100993.94;;;17.42
75431;BMP280;64127;51.488;5.462;2023-05-10T12:25:41;100996.72;;;17.49
75431;BMP280;64127;51.488;5.462;2023-05-10T12:28:13;100990.72;;;17.61
75431;BMP280;64127;51.488;5.462;2023-05-10T12:30:45;100994.44;;;17.70
75431;BMP280;64127;51.488;5.462;2023-05-10T12:33:17;100998.84;;;17.71
75431;BMP280;64127;51.488;5.462;2023-05-10T12:35:54;101001.53;;;17.74
75431;BMP280;64127;51.488;5.462;2023-05-10T12:38:34;101002.50;;;17.80
75431;BMP280;64127;51.488;5.462;2023-05-10T12:41:13;101009.69;;;17.88
75431;BMP280;64127;51.488;5.462;2023-05-10T12:43:45;101013.25;;;17.89
75431;BMP280;64127;51.488;5.462;2023-05-10T12:46:18;101011.38;;;17.82
75431;BMP280;64127;51.488;5.462;2023-05-10T12:48:50;101013.03;;;17.73
75431;BMP280;64127;51.488;5.462;2023-05-10T12:51:39;101023.56;;;17.69
75431;BMP280;64127;51.488;5.462;2023-05-10T12:54:11;101021.78;;;17.68
75431;BMP280;64127;51.488;5.462;2023-05-10T12:56:43;101013.78;;;17.63
75431;BMP280;64127;51.488;5.462;2023-05-10T12:59:15;101019.91;;;17.59
75431;BMP280;64127;51.488;5.462;2023-05-10T13:01:47;101007.31;;;17.49
75431;BMP280;64127;51.488;5.462;2023-05-10T13:04:19;101024.25;;;17.57
75431;BMP280;64127;51.488;5.462;2023-05-10T13:06:51;101024.38;;;17.63
75431;BMP280;64127;51.488;5.462;2023-05-10T13:09:24;101013.78;;;17.65
75431;BMP280;64127;51.488;5.462;2023-05-10T13:11:56;101013.78;;;17.63
75431;BMP280;64127;51.488;5.462;2023-05-10T13:14:30;101023.59;;;17.70
75431;BMP280;64127;51.488;5.462;2023-05-10T13:17:02;101014.78;;;17.73
75431;BMP280;64127;51.488;5.462;2023-05-10T13:19:34;101021.84;;;17.72
75431;BMP280;64127;51.488;5.462;2023-05-10T13:22:06;101024.47;;;17.69
75431;BMP280;64127;51.488;5.462;2023-05-10T13:24:38;101029.03;;;17.80
75431;BMP280;64127;51.488;5.462;2023-05-10T13:27:10;101030.91;;;17.88
75431;BMP280;64127;51.488;5.462;2023-05-10T13:29:42;101023.91;;;17.92
75431;BMP280;64127;51.488;5.462;2023-05-10T13:32:16;101033.75;;;18.02
75431;BMP280;64127;51.488;5.462;2023-05-10T13:34:48;101036.53;;;18.08
75431;BMP280;64127;51.488;5.462;2023-05-10T13:37:20;101036.50;;;18.06
75431;BMP280;64127;51.488;5.462;2023-05-10T13:39:53;101037.34;;;18.04
75431;BMP280;64127;51.488;5.462;2023-05-10T13:42:25;101044.34;;;17.99
75431;BMP280;64127;51.488;5.462;2023-05-10T13:44:57;101037.97;;;17.86
75431;BMP280;64127;51.488;5.462;2023-05-10T13:47:29;101044.91;;;17.77
75431;BMP280;64127;51.488;5.462;2023-05-10T13:50:01;101042.97;;;17.66
75431;BMP280;64127;51.488;5.462;2023-05-10T13:52:33;101038.41;;;17.58
75431;BMP280;64127;51.488;5.462;2023-05-10T13:55:05;101035.75;;;17.56
75431;BMP280;64127;51.488;5.462;2023-05-10T13:57:38;101026.69;;;17.45
75431;BMP280;64127;51.488;5.462;2023-05-10T14:00:10;101022.13;;;17.37
75431;BMP280;64127;51.488;5.462;2023-05-10T14:02:42;101043.22;;;17.31
75431;BMP280;64127;51.488;5.462;2023-05-10T14:05:14;101051.78;;;17.16
75431;BMP280;64127;51.488;5.462;2023-05-10T14:07:50;101048.09;;;17.05
75431;BMP280;64127;51.488;5.462;2023-05-10T14:10:22;101055.97;;;17.02
75431;BMP280;64127;51.488;5.462;2023-05-10T14:12:54;101053.34;;;17.02
75431;BMP280;64127;51.488;5.462;2023-05-10T14:15:26;101018.56;;;16.84
75431;BMP280;64127;51.488;5.462;2023-05-10T14:17:58;101051.50;;;16.99
75431;BMP280;64127;51.488;5.462;2023-05-10T14:20:30;101048.75;;;16.92
75431;BMP280;64127;51.488;5.462;2023-05-10T14:23:03;101047.00;;;16.94
75431;BMP280;64127;51.488;5.462;2023-05-10T14:25:35;101053.25;;;16.99
75431;BMP280;64127;51.488;5.462;2023-05-10T14:28:07;101055.09;;;17.01
75431;BMP280;64127;51.488;5.462;2023-05-10T14:30:40;101055.16;;;17.04
75431;BMP280;64127;51.488;5.462;2023-05-10T14:33:11;101064.88;;;17.07
75431;BMP280;64127;51.488;5.462;2023-05-10T14:35:44;101055.19;;;17.09
75431;BMP280;64127;51.488;5.462;2023-05-10T14:38:16;101065.00;;;17.13
75431;BMP280;64127;51.488;5.462;2023-05-10T14:40:48;101058.88;;;17.15
75431;BMP280;64127;51.488;5.462;2023-05-10T14:43:21;101056.25;;;17.17
75431;BMP280;64127;51.488;5.462;2023-05-10T14:45:53;101051.00;;;17.20
75431;BMP280;64127;51.488;5.462;2023-05-10T14:48:25;101040.44;;;17.23
75431;BMP280;64127;51.488;5.462;2023-05-10T14:50:57;101011.06;;;17.09
75431;BMP280;64127;51.488;5.462;2023-05-10T14:53:28;101049.47;;;17.34
75431;BMP280;64127;51.488;5.462;2023-05-10T14:56:00;101047.78;;;17.38
75431;BMP280;64127;51.488;5.462;2023-05-10T14:58:35;101044.28;;;17.40
75431;BMP280;64127;51.488;5.462;2023-05-10T15:01:07;101050.50;;;17.44